Have a Safe July 4th! 

Flight Track Log - Related Links

Times and Time Zones

All times are in EDT time to prevent confusion due to time zone crossing. See the AAL1398 flight status page for this flight to view local times or setup timezone preferences in your user account.

Time Position Orientation Groundspeed Altitude Reporting Facility
EDT Latitude Longitude Course Direction KTS MPH feet Rate Location/Type
Wed 12:38:00 PM 18.6708 -69.8250 328° Northwest  Level FlightAware Approximate
Wed 12:39:00 PM 18.7564 -69.8820 328° Northwest  Level FlightAware Approximate
Wed 12:40:00 PM 18.8430 -69.9373 329° Northwest  Level FlightAware Approximate
Wed 12:41:00 PM 18.9298 -69.9923 327° Northwest  Level FlightAware Approximate
Wed 12:42:00 PM 19.0147 -70.0506 327° Northwest  Level FlightAware Approximate
Wed 12:43:00 PM 19.0995 -70.1090 327° Northwest  Level FlightAware Approximate
Wed 12:44:00 PM 19.1844 -70.1674 328° Northwest  Level FlightAware Approximate
Wed 12:45:00 PM 19.2700 -70.2244 328° Northwest  Level FlightAware Approximate
Wed 12:46:00 PM 19.3544 -70.2835 323° Northwest  Level FlightAware Approximate
Wed 12:47:00 PM 19.4352 -70.3481 323° Northwest  Level FlightAware Approximate
Wed 12:47:40 PM 18.9750 -70.4161 322° Northwest 437 503 30,000  Level Miami Center
Wed 12:48:00 PM 19.5173 -70.4107 330° Northwest  Level FlightAware Approximate
Wed 12:48:40 PM 19.0769 -70.4642 336° Northwest 416 479 31,800  Level Miami Center
Wed 12:49:00 PM 19.6049 -70.4645 330° Northwest  Level FlightAware Approximate
Wed 12:49:40 PM 19.1769 -70.5144 335° Northwest 402 463 33,700  Level Miami Center
Wed 12:50:00 PM 19.6924 -70.5184 330° Northwest  Level FlightAware Approximate
Wed 12:50:40 PM 19.2786 -70.5625 336° Northwest 397 457 35,200  Level Miami Center
Wed 12:51:00 PM 19.7712 -70.5833 North  Level FlightAware Approximate
Wed 12:51:40 PM 19.3783 -70.6108 335° Northwest 397 457 36,400  Level Miami Center
Wed 12:52:00 PM 19.8521 -70.6435 321° Northwest  Level FlightAware Approximate
Wed 12:52:40 PM 19.4803 -70.6611 335° Northwest 392 451 37,600  Level Miami Center
Wed 12:53:00 PM 19.9305 -70.7115 322° Northwest  Level FlightAware Approximate
Wed 12:53:40 PM 19.5803 -70.7117 335° Northwest 392 451 38,000  Level Miami Center
Wed 12:54:40 PM 19.6861 -70.7600 337° Northwest 392 451 38,000  Level Miami Center
Wed 12:55:40 PM 19.7861 -70.8083 336° Northwest 392 451 38,000  Level Miami Center
Wed 12:56:40 PM 19.8900 -70.8611 334° Northwest 397 457 38,000  Level Miami Center
Wed 12:57:40 PM 19.9919 -70.9119 335° Northwest 402 463 38,000  Level Miami Center
Wed 12:58:40 PM 20.0961 -70.9625 335° Northwest 407 468 38,000  Level Miami Center
Wed 12:59:40 PM 20.1981 -71.0133 335° Northwest 407 468 38,000  Level Miami Center
Wed 01:00:40 PM 20.3000 -71.0644 335° Northwest 407 468 38,000  Level Miami Center
Wed 01:01:40 PM 20.3997 -71.1175 333° Northwest 407 468 38,000  Level Miami Center
Wed 01:02:40 PM 20.4678 -71.2056 310° West 390 449 38,000  Level Miami Center
Wed 01:03:40 PM 20.5275 -71.3003 304° West 385 443 38,000  Level Miami Center
Wed 01:04:40 PM 20.5869 -71.3953 304° West 385 443 38,000  Level Miami Center
Wed 01:05:40 PM 20.6511 -71.5014 303° West 385 443 38,000  Level Miami Center
Wed 01:06:40 PM 20.7108 -71.5964 304° West 385 443 38,000  Level Miami Center
Wed 01:07:40 PM 20.7703 -71.6939 303° West 385 443 38,000  Level Miami Center
Wed 01:08:40 PM 20.8297 -71.7872 304° West 385 443 38,000  Level Miami Center
Wed 01:09:40 PM 20.8892 -71.8847 303° West 385 443 38,000  Level Miami Center
Wed 01:10:40 PM 20.9506 -71.9803 305° West 385 443 38,000  Level Miami Center
Wed 01:11:40 PM 21.0078 -72.0758 303° West 385 443 38,000  Level Miami Center
Wed 01:12:40 PM 21.0672 -72.1739 303° West 385 443 38,000  Level Miami Center
Wed 01:13:40 PM 21.1264 -72.2694 304° West 385 443 38,000  Level Miami Center
Wed 01:14:40 PM 21.1856 -72.3678 303° West 385 443 38,000  Level Miami Center
Wed 01:16:00 PM 21.2596 -72.4885 303° West  Level FlightAware Approximate
Wed 01:16:40 PM 21.3017 -72.5575 303° West 385 443 38,000  Level Miami Center
Wed 01:17:40 PM 21.3628 -72.6514 305° West 385 443 38,000  Level Miami Center
Wed 01:18:40 PM 21.4217 -72.7475 303° West 385 443 38,000  Level Miami Center
Wed 01:19:40 PM 21.4764 -72.8439 301° West 380 437 38,000  Level Miami Center
Wed 01:20:40 PM 21.5372 -72.9381 305° West 380 437 38,000  Level Miami Center
Wed 01:21:40 PM 21.5961 -73.0347 303° West 385 443 38,000  Level Miami Center
Wed 01:22:40 PM 21.6547 -73.1289 304° West 385 443 38,000  Level Miami Center
Wed 01:23:40 PM 21.7133 -73.2256 303° West 385 443 38,000  Level Miami Center
Wed 01:24:40 PM 21.7700 -73.3222 302° West 385 443 38,000  Level Miami Center
Wed 01:25:40 PM 21.8286 -73.4214 302° West 385 443 38,000  Level Miami Center
Wed 01:26:40 PM 21.8831 -73.5183 301° West 385 443 38,000  Level Miami Center
Wed 01:27:40 PM 21.9414 -73.6153 303° West 385 443 38,000  Level Miami Center
Wed 01:28:40 PM 21.9978 -73.7103 303° West 385 443 38,000  Level Miami Center
Wed 01:29:40 PM 22.0414 -73.7989 298° West 380 437 38,000  Level Miami Center
Wed 01:30:40 PM 22.1017 -73.8939 304° West 380 437 38,000  Level Miami Center
Wed 01:31:40 PM 22.1578 -73.9911 302° West 380 437 38,000  Level Miami Center
Wed 01:32:40 PM 22.2181 -74.0864 304° West 385 443 38,000  Level Miami Center
Wed 01:33:40 PM 22.2719 -74.1794 302° West 380 437 38,000  Level Miami Center
Wed 01:34:40 PM 22.3300 -74.2769 303° West 385 443 38,000  Level Miami Center
Wed 01:35:40 PM 22.3858 -74.3725 302° West 385 443 38,000  Level Miami Center
Wed 01:36:40 PM 22.4439 -74.4681 303° West 385 443 38,000  Level Miami Center
Wed 01:37:40 PM 22.5017 -74.5658 303° West 385 443 38,000  Level Miami Center
Wed 01:38:40 PM 22.5575 -74.6617 302° West 385 443 38,000  Level Miami Center
Wed 01:39:40 PM 22.6131 -74.7550 303° West 380 437 38,000  Level Miami Center
Wed 01:40:40 PM 22.6689 -74.8533 302° West 380 437 38,000  Level Miami Center
Wed 01:41:40 PM 22.7264 -74.9492 303° West 385 443 38,000  Level Miami Center
Wed 01:42:40 PM 22.7819 -75.0453 302° West 380 437 38,000  Level Miami Center
Wed 01:43:40 PM 22.8394 -75.1436 302° West 385 443 38,000  Level Miami Center
Wed 01:44:40 PM 22.8950 -75.2397 302° West 385 443 38,000  Level Miami Center
Wed 01:45:40 PM 22.9503 -75.3361 302° West 385 443 38,000  Level Miami Center
Wed 01:46:40 PM 23.0075 -75.4325 303° West 385 443 38,000  Level Miami Center
Wed 01:47:40 PM 23.0628 -75.5289 302° West 385 443 38,000  Level Miami Center
Wed 01:48:40 PM 23.1181 -75.6256 302° West 385 443 38,000  Level Miami Center
Wed 01:49:40 PM 23.1731 -75.7244 301° West 385 443 38,000  Level Miami Center
Wed 01:50:40 PM 23.2344 -75.8325 302° West 380 437 38,000  Level Miami Center
Wed 01:51:40 PM 23.2914 -75.9314 302° West 386 444 38,000  Level Miami Center
Wed 01:52:40 PM 23.3486 -76.0283 303° West 386 444 38,000  Level Miami Center
Wed 01:53:40 PM 23.4056 -76.1275 302° West 381 438 38,000  Level Miami Center
Wed 01:54:40 PM 23.4622 -76.2247 302° West 381 438 38,000  Level Miami Center
Wed 01:55:40 PM 23.5169 -76.3219 302° West 381 438 38,000  Level Miami Center
Wed 01:56:40 PM 23.5739 -76.4192 303° West 381 438 38,000  Level Miami Center
Wed 01:57:40 PM 23.6306 -76.5164 302° West 381 438 38,000  Level Miami Center
Wed 01:58:40 PM 23.6872 -76.6139 302° West 381 438 38,000  Level Miami Center
Wed 01:59:40 PM 23.7417 -76.7136 301° West 381 438 38,000  Level Miami Center
Wed 02:00:40 PM 23.7958 -76.8111 301° West 381 438 38,000  Level Miami Center
Wed 02:01:40 PM 23.8503 -76.9111 301° West 381 438 38,000  Level Miami Center
Wed 02:02:40 PM 23.8983 -76.9975 301° West 381 438 38,000  Level Miami Center
Wed 02:03:40 PM 23.9547 -77.0953 302° West 381 438 38,000  Level Miami Center
Wed 02:04:40 PM 24.0108 -77.1956 302° West 388 447 38,000  Level Miami Center
Wed 02:05:40 PM 24.0650 -77.2958 301° West 383 441 38,000  Level Miami Center
Wed 02:06:40 PM 24.1211 -77.3961 302° West 383 441 38,000  Level Miami Center
Wed 02:07:40 PM 24.1750 -77.4967 300° West 383 441 38,000  Level Miami Center
Wed 02:08:40 PM 24.2308 -77.5994 301° West 383 441 38,000  Level Miami Center
Wed 02:09:40 PM 24.2869 -77.6978 302° West 383 441 38,000  Level Miami Center
Wed 02:10:40 PM 24.3406 -77.7964 301° West 383 441 38,000  Level Miami Center
Wed 02:11:40 PM 24.4067 -77.9178 301° West 383 441 38,000  Level Miami Center
Wed 02:12:40 PM 24.4519 -78.0003 301° West 375 432 38,000  Level Miami Center
Wed 02:13:40 PM 24.5078 -78.0967 302° West 380 437 38,000  Level Miami Center
Wed 02:14:40 PM 24.5611 -78.1933 301° West 380 437 38,000 -350 Level Miami Center
Wed 02:15:40 PM 24.6167 -78.2967 301° West 386 444 37,300 -1,150 Descending Miami Center
Wed 02:16:40 PM 24.6742 -78.3956 303° West 386 444 35,700 -1,550 Descending Miami Center
Wed 02:17:40 PM 24.7317 -78.5017 301° West 386 444 34,200 -1,600 Descending Miami Center
Wed 02:18:40 PM 24.7869 -78.6031 301° West 381 438 32,500 -1,750 Descending Miami Center
Wed 02:19:40 PM 24.8442 -78.7114 300° West 397 457 30,700 -1,700 Descending Miami Center
Wed 02:20:40 PM 24.9053 -78.8178 302° West 407 468 29,100 -1,500 Descending Miami Center
Wed 02:21:40 PM 24.9603 -78.9311 298° West 412 474 27,700 -1,300 Descending Miami Center
Wed 02:22:40 PM 25.0339 -79.0469 305° West 412 474 26,500 -1,350 Descending Miami Center
Wed 02:23:40 PM 25.0864 -79.1556 298° West 412 474 25,000 -2,000 Descending Miami Center
Wed 02:24:40 PM 25.1453 -79.2647 301° West 407 468 22,500 -2,450 Descending Miami Center
Wed 02:25:40 PM 25.2000 -79.3667 301° West 407 468 20,100 -2,350 Descending Miami Center
Wed 02:26:40 PM 25.2567 -79.4714 301° West 402 463 17,800 -2,524 Descending Miami Center
Wed 02:27:46 PM 25.3153 -79.5875 299° West 386 444 14,800 -2,500 Descending Miami Center
Wed 02:28:40 PM 25.3639 -79.6736 302° West 390 449 12,800 -2,233 Descending Miami Center
Wed 02:29:12 PM 25.3900 -79.7272 298° West 371 427 11,600 -1,800 Descending Miami Center
Wed 02:29:40 PM 25.4183 -79.7669 308° West 377 434 11,000 -1,082 Descending Miami Center
Wed 02:30:13 PM 25.4425 -79.8111 301° West 296 341 10,500 -1,100 Descending Miami Center
Wed 02:30:40 PM 25.4669 -79.8442 309° West 342 394 9,900 -1,475 Descending Miami Center
Wed 02:31:14 PM 25.4933 -79.8861 305° West 292 336 9,000 -1,300 Descending Miami Center
Wed 02:31:40 PM 25.5136 -79.9142 309° West 309 356 8,600 -750 Descending Miami Center
Wed 02:32:10 PM 25.5378 -79.9539 304° West 294 338 8,300 -600 Descending Miami Center
Wed 02:32:40 PM 25.5622 -79.9869 309° West 298 343 8,000 -197 Descending Miami Center
Wed 02:33:11 PM 25.5822 -80.0267 299° West 292 336 8,100  Climbing Miami Center
Wed 02:33:40 PM 25.6086 -80.0594 312° West 293 337 8,000  Descending Miami Center
Wed 02:34:12 PM 25.6328 -80.1017 302° West 292 336 8,100  Climbing Miami Center
Wed 02:34:40 PM 25.6761 -80.1328 327° Northwest 332 382 8,000  Descending Miami Center
Wed 02:35:20 PM 25.6728 -80.1903 266° West 292 336 8,100  Climbing Miami Center
Wed 02:35:40 PM 25.6825 -80.2158 293° West 285 328 8,000  Descending Miami Center
Wed 02:36:14 PM 25.6917 -80.2714 280° West 291 335 8,100  Climbing Miami Center
Wed 02:36:40 PM 25.7056 -80.2994 299° West 285 328 8,000 -643 Descending Miami Center
Wed 02:37:10 PM 25.7089 -80.3411 275° West 247 284 7,500 -900 Descending Miami Center
Wed 02:37:40 PM 25.7100 -80.3758 272° West 273 314 7,100 -1,279 Descending Miami Center
Wed 02:38:11 PM 25.7028 -80.4169 259° West 235 270 6,200 -1,565 Descending Miami Center
Wed 02:39:12 PM 25.7033 -80.4886 271° West 232 267 4,700 -1,317 Descending Miami Center
Wed 02:40:14 PM 25.7333 -80.5356 305° West 206 237 3,500 -829 Descending Miami Center
Wed 02:41:15 PM 25.7697 -80.4997 42° Northeast 166 191 3,000 -492 Descending Miami Center

Login

Don't have an account? Register now (free) for customized features, flight alerts, and more!